Time;durP1;ratioP1;P1;durP2;ratioP2;P2;SDS_P1;SDS_P2;PMS_P1;PMS_P2;Temp;Humidity;BMP_temperature;BMP_pressure;BME280_temperature;BME280_humidity;BME280_pressure;Samples;Min_cycle;Max_cycle;Signal;HPM_P1;HPM_P2
2022/11/15 00:00:17;;;;;;;65.20;28.92;;;9.50;92.90;;;;;;5012254;28;20037;-71
2022/11/15 00:02:46;;;;;;;37.95;19.58;;;9.50;92.70;;;;;;5010664;28;20025;-73
2022/11/15 00:05:11;;;;;;;43.65;22.17;;;9.50;92.60;;;;;;5019910;28;20022;-73
2022/11/15 00:07:37;;;;;;;47.83;26.35;;;9.50;92.70;;;;;;5025311;28;20045;-73
2022/11/15 00:10:04;;;;;;;40.15;21.48;;;9.50;92.60;;;;;;5013076;28;20109;-73
2022/11/15 00:12:29;;;;;;;59.13;30.35;;;9.50;92.60;;;;;;5010712;28;20041;-71
2022/11/15 00:14:55;;;;;;;49.17;25.65;;;9.50;92.70;;;;;;5011982;28;20033;-73
2022/11/15 00:17:20;;;;;;;44.45;22.20;;;9.60;92.70;;;;;;5006912;28;20037;-73
2022/11/15 00:19:46;;;;;;;67.43;30.77;;;9.60;92.90;;;;;;5016264;28;20029;-72
2022/11/15 00:22:12;;;;;;;42.17;21.88;;;9.60;93.10;;;;;;5007294;28;20025;-73
2022/11/15 00:24:37;;;;;;;58.40;27.40;;;9.60;92.90;;;;;;5023257;28;20125;-72
2022/11/15 00:27:03;;;;;;;57.90;26.33;;;9.70;93.00;;;;;;5009393;28;20038;-72
2022/11/15 00:29:29;;;;;;;40.00;19.23;;;9.70;93.10;;;;;;5021067;28;20022;-73
2022/11/15 00:31:54;;;;;;;47.28;24.02;;;9.80;93.00;;;;;;5026063;28;20025;-73
2022/11/15 00:34:20;;;;;;;46.03;23.48;;;9.80;92.60;;;;;;5023088;28;20377;-72
2022/11/15 00:36:48;;;;;;;46.83;23.67;;;9.70;92.90;;;;;;5014579;28;20025;-72
2022/11/15 00:39:14;;;;;;;37.85;20.80;;;9.70;92.90;;;;;;5013454;28;20392;-72
2022/11/15 00:41:39;;;;;;;42.00;23.55;;;9.70;93.00;;;;;;5019806;28;20039;-72
2022/11/15 00:44:05;;;;;;;54.35;27.20;;;9.70;93.00;;;;;;5013506;28;20028;-73
2022/11/15 00:46:31;;;;;;;43.60;22.80;;;9.70;93.20;;;;;;5010642;28;20353;-72
2022/11/15 00:48:56;;;;;;;44.70;25.45;;;9.70;93.30;;;;;;5010527;28;20025;-73
2022/11/15 00:51:23;;;;;;;56.97;30.27;;;9.70;93.20;;;;;;5016542;28;20022;-72
2022/11/15 00:53:49;;;;;;;37.25;21.27;;;9.70;93.20;;;;;;5009141;28;20564;-73
2022/11/15 00:56:14;;;;;;;47.97;26.75;;;9.70;93.20;;;;;;5023940;28;20155;-72
2022/11/15 00:58:40;;;;;;;42.17;24.38;;;9.80;93.30;;;;;;5011774;28;20030;-73
2022/11/15 01:01:11;;;;;;;39.75;21.98;;;9.80;93.60;;;;;;5018549;28;20053;-73
2022/11/15 01:03:37;;;;;;;53.20;30.23;;;9.80;93.30;;;;;;5015933;28;20053;-72
2022/11/15 01:06:04;;;;;;;42.97;23.17;;;9.80;93.20;;;;;;5017606;28;20026;-73
2022/11/15 01:08:31;;;;;;;26.65;17.33;;;9.80;93.30;;;;;;5010838;28;20033;-72
2022/11/15 01:11:05;;;;;;;35.08;18.48;;;9.80;93.10;;;;;;5013511;28;20734;-71
2022/11/15 01:13:34;;;;;;;51.45;29.40;;;9.80;93.20;;;;;;5010798;28;20041;-72
2022/11/15 01:16:07;;;;;;;43.10;26.77;;;9.80;93.20;;;;;;5023938;28;20049;-73
2022/11/15 01:18:32;;;;;;;45.75;26.42;;;9.80;93.50;;;;;;5011135;28;20038;-72
2022/11/15 01:20:58;;;;;;;47.70;30.95;;;9.80;93.60;;;;;;5022622;28;20320;-72
2022/11/15 01:23:23;;;;;;;62.55;36.70;;;9.90;93.60;;;;;;5011540;28;20053;-71
2022/11/15 01:25:50;;;;;;;58.28;32.90;;;9.90;93.60;;;;;;5020962;28;20097;-71
2022/11/15 01:28:16;;;;;;;49.78;28.75;;;9.90;93.70;;;;;;5022980;28;20037;-72
2022/11/15 01:30:41;;;;;;;45.30;24.63;;;9.90;93.70;;;;;;5027177;28;20542;-72
2022/11/15 01:33:09;;;;;;;50.50;30.17;;;10.00;93.80;;;;;;5016209;28;20040;-73
2022/11/15 01:35:38;;;;;;;47.63;27.55;;;10.00;93.80;;;;;;5020559;28;20095;-72
2022/11/15 01:38:07;;;;;;;47.30;25.73;;;10.10;93.90;;;;;;5024563;28;20018;-72
2022/11/15 01:40:32;;;;;;;56.42;31.17;;;10.10;93.90;;;;;;5018290;28;20037;-72
2022/11/15 01:42:58;;;;;;;51.65;29.05;;;10.20;93.80;;;;;;5024269;28;20052;-72
2022/11/15 01:45:23;;;;;;;42.95;26.42;;;10.20;93.80;;;;;;5019275;28;20065;-72
2022/11/15 01:47:53;;;;;;;36.60;23.95;;;10.30;93.90;;;;;;5024209;28;20063;-72
2022/11/15 01:50:29;;;;;;;48.40;29.10;;;10.30;93.80;;;;;;5021113;28;20038;-72
2022/11/15 01:52:55;;;;;;;48.70;29.05;;;10.40;93.80;;;;;;5024306;28;20021;-72
2022/11/15 01:55:24;;;;;;;42.47;25.63;;;10.40;93.80;;;;;;5019586;28;20021;-71
2022/11/15 01:57:57;;;;;;;49.35;29.20;;;10.40;93.70;;;;;;5021746;28;20032;-71
2022/11/15 02:00:23;;;;;;;39.90;25.55;;;10.40;93.80;;;;;;5015539;28;20014;-72
2022/11/15 02:02:48;;;;;;;44.05;25.80;;;10.50;93.80;;;;;;5011718;28;20037;-73
2022/11/15 02:05:18;;;;;;;42.22;26.25;;;10.50;93.80;;;;;;5018511;28;20021;-73
2022/11/15 02:07:47;;;;;;;45.93;26.10;;;10.50;93.70;;;;;;5019581;28;20038;-74
2022/11/15 02:10:18;;;;;;;37.15;22.80;;;10.50;93.80;;;;;;5015134;28;20033;-74
2022/11/15 02:12:45;;;;;;;36.88;23.80;;;10.60;93.80;;;;;;5020951;28;20040;-72
2022/11/15 02:15:11;;;;;;;41.78;25.30;;;10.60;93.80;;;;;;5018104;28;20026;-72
2022/11/15 02:17:45;;;;;;;41.78;24.27;;;10.70;93.80;;;;;;5025396;28;20028;-73
2022/11/15 02:20:14;;;;;;;40.85;25.42;;;10.70;93.80;;;;;;5016541;28;20057;-71
2022/11/15 02:22:58;;;;;;;39.47;24.45;;;10.70;93.80;;;;;;5015049;28;20026;-72
2022/11/15 02:25:55;;;;;;;40.38;28.42;;;10.80;93.70;;;;;;5023782;28;20041;-73
2022/11/15 02:28:44;;;;;;;36.85;23.98;;;10.80;93.70;;;;;;5018726;28;20069;-72
2022/11/15 02:31:48;;;;;;;38.00;24.00;;;10.90;93.70;;;;;;5016221;28;20032;-72
2022/11/15 02:34:35;;;;;;;46.20;27.55;;;10.90;93.60;;;;;;5018738;28;20044;-71
2022/11/15 02:37:18;;;;;;;35.60;24.77;;;10.90;93.70;;;;;;5034834;28;20415;-72
2022/11/15 02:39:57;;;;;;;29.08;20.27;;;10.90;93.70;;;;;;5015715;28;20053;-72
2022/11/15 02:45:23;;;;;;;37.25;24.00;;;11.00;93.70;;;;;;5018578;28;20036;-73
2022/11/15 02:47:54;;;;;;;36.72;23.13;;;11.00;93.60;;;;;;5019599;28;20068;-72
2022/11/15 02:50:24;;;;;;;33.55;23.10;;;11.00;93.70;;;;;;5020142;28;20470;-73
2022/11/15 02:52:51;;;;;;;34.38;21.88;;;11.10;93.70;;;;;;5018763;28;20030;-72
2022/11/15 02:55:34;;;;;;;32.03;22.85;;;11.10;93.70;;;;;;5022465;28;20053;-72
2022/11/15 02:58:21;;;;;;;37.90;22.08;;;11.10;93.60;;;;;;5017138;28;20051;-72
2022/11/15 03:01:07;;;;;;;37.03;23.67;;;11.10;93.70;;;;;;5018244;28;20022;-71
2022/11/15 03:03:51;;;;;;;34.80;24.90;;;11.20;93.70;;;;;;5018887;28;20025;-71
2022/11/15 03:06:36;;;;;;;38.95;24.02;;;11.20;93.70;;;;;;5014228;28;20037;-71
2022/11/15 03:09:24;;;;;;;36.10;23.13;;;11.30;93.70;;;;;;5019519;28;20100;-72
2022/11/15 03:11:58;;;;;;;30.13;20.73;;;11.30;93.70;;;;;;5017935;28;20038;-72
2022/11/15 03:14:34;;;;;;;31.00;20.73;;;11.30;93.70;;;;;;5018547;28;20056;-72
2022/11/15 03:17:33;;;;;;;32.55;21.77;;;11.30;93.80;;;;;;5012632;28;20037;-73
2022/11/15 03:20:06;;;;;;;32.63;21.85;;;11.30;93.90;;;;;;5016835;28;20430;-73
2022/11/15 03:22:40;;;;;;;33.42;22.92;;;11.30;93.80;;;;;;5019882;28;20116;-70
2022/11/15 03:25:09;;;;;;;32.50;21.48;;;11.30;93.90;;;;;;5021585;28;20056;-72
2022/11/15 03:27:42;;;;;;;19.87;14.03;;;11.30;94.00;;;;;;5016028;28;20029;-72
2022/11/15 03:30:08;;;;;;;30.35;18.27;;;11.40;93.80;;;;;;5023464;28;20126;-72
2022/11/15 03:32:43;;;;;;;26.20;18.33;;;11.40;93.60;;;;;;5016779;28;20022;-73
2022/11/15 03:35:13;;;;;;;30.90;22.48;;;11.40;93.80;;;;;;5026555;28;20021;-72
2022/11/15 03:38:02;;;;;;;41.30;26.10;;;11.40;93.90;;;;;;5022392;28;20041;-71
2022/11/15 03:40:37;;;;;;;26.83;18.02;;;11.50;94.20;;;;;;5020165;28;20071;-72
2022/11/15 03:43:36;;;;;;;23.55;16.33;;;11.50;93.80;;;;;;5018923;28;20068;-73
2022/11/15 03:46:12;;;;;;;29.98;22.17;;;11.50;93.20;;;;;;5020136;28;20053;-71
2022/11/15 03:48:46;;;;;;;20.75;15.10;;;11.60;93.50;;;;;;5006007;28;20030;-72
2022/11/15 03:51:11;;;;;;;26.55;19.00;;;11.60;93.50;;;;;;5014223;28;20844;-72
2022/11/15 03:53:37;;;;;;;41.40;27.50;;;11.60;93.40;;;;;;5024007;28;20101;-73
2022/11/15 03:56:03;;;;;;;23.88;15.90;;;11.60;93.70;;;;;;5019457;28;20057;-72
2022/11/15 03:58:28;;;;;;;29.02;19.27;;;11.70;94.00;;;;;;5025284;28;20029;-71
2022/11/15 04:00:54;;;;;;;35.20;23.45;;;11.70;94.00;;;;;;5015085;28;20596;-72
2022/11/15 04:03:20;;;;;;;37.92;24.45;;;11.70;94.00;;;;;;5022341;28;20480;-72
2022/11/15 04:05:45;;;;;;;34.50;23.08;;;11.70;94.10;;;;;;5024422;28;20022;-71
2022/11/15 04:08:11;;;;;;;14.88;10.02;;;11.80;93.90;;;;;;5024897;28;20037;-72
2022/11/15 04:10:36;;;;;;;18.50;11.10;;;11.80;93.10;;;;;;5009256;28;20029;-71
2022/11/15 04:13:02;;;;;;;19.75;13.18;;;11.80;92.90;;;;;;5019420;28;20032;-70
2022/11/15 04:15:29;;;;;;;22.17;13.48;;;11.90;93.10;;;;;;5009438;28;20527;-72
2022/11/15 04:17:56;;;;;;;20.30;13.55;;;11.90;92.40;;;;;;5026115;28;20075;-71
2022/11/15 04:26:08;;;;;;;30.10;23.25;;;11.90;92.70;;;;;;5013206;28;20155;-72
2022/11/15 04:28:34;;;;;;;23.30;16.20;;;12.00;93.60;;;;;;5015492;28;20691;-73
2022/11/15 04:30:59;;;;;;;26.77;17.70;;;12.00;93.60;;;;;;5025735;28;20476;-71
2022/11/15 04:33:25;;;;;;;27.17;15.88;;;12.10;93.60;;;;;;5027102;28;20029;-72
2022/11/15 04:38:36;;;;;;;30.00;19.73;;;12.10;94.20;;;;;;5023917;28;20503;-71
2022/11/15 04:41:04;;;;;;;37.00;23.98;;;12.20;94.30;;;;;;5008214;28;20018;-72
2022/11/15 04:43:29;;;;;;;29.23;19.23;;;12.20;94.30;;;;;;5018145;28;20064;-71
2022/11/15 04:45:55;;;;;;;20.90;14.40;;;12.20;94.10;;;;;;5025338;28;20703;-72
2022/11/15 04:48:22;;;;;;;30.25;22.00;;;12.30;94.00;;;;;;5019888;28;20064;-72
2022/11/15 04:50:48;;;;;;;31.52;21.00;;;12.30;94.40;;;;;;5012639;28;20030;-72
2022/11/15 04:53:14;;;;;;;24.38;17.20;;;12.30;94.00;;;;;;5027722;28;20472;-72
2022/11/15 04:55:40;;;;;;;27.17;19.25;;;12.30;94.10;;;;;;5027429;28;20029;-73
2022/11/15 04:58:05;;;;;;;24.55;17.20;;;12.30;94.20;;;;;;5019570;28;20032;-71
2022/11/15 05:00:31;;;;;;;25.98;18.40;;;12.40;93.50;;;;;;5025346;28;20160;-73
2022/11/15 05:05:41;;;;;;;19.23;14.55;;;12.40;93.80;;;;;;5025112;28;20068;-72
2022/11/15 05:08:07;;;;;;;17.02;10.88;;;12.40;92.90;;;;;;5025177;28;20026;-72
2022/11/15 05:10:33;;;;;;;32.30;22.33;;;12.40;92.70;;;;;;5027363;28;20038;-72
2022/11/15 05:12:58;;;;;;;33.90;22.55;;;12.40;92.70;;;;;;5027294;28;20507;-71
2022/11/15 05:15:24;;;;;;;31.02;22.95;;;12.30;93.30;;;;;;5027056;28;20132;-72
2022/11/15 05:17:49;;;;;;;27.50;16.67;;;12.30;93.80;;;;;;5018493;28;20029;-70
2022/11/15 05:20:15;;;;;;;32.10;22.88;;;12.40;94.20;;;;;;5029534;28;20113;-72
2022/11/15 05:22:42;;;;;;;30.60;20.02;;;12.40;93.80;;;;;;5022364;28;20041;-72
2022/11/15 05:25:08;;;;;;;34.97;23.77;;;12.50;93.70;;;;;;5026882;28;20152;-71
2022/11/15 05:27:36;;;;;;;21.58;14.23;;;12.40;94.20;;;;;;5019461;28;20112;-72
2022/11/15 05:30:02;;;;;;;21.52;16.17;;;12.50;93.30;;;;;;5022277;28;20053;-72
2022/11/15 05:32:28;;;;;;;30.83;20.63;;;12.50;93.30;;;;;;5019885;28;20056;-72
2022/11/15 05:34:54;;;;;;;34.78;24.02;;;12.50;93.80;;;;;;5023097;28;20022;-72
2022/11/15 05:37:20;;;;;;;35.60;23.05;;;12.50;94.10;;;;;;5020004;28;20455;-71
2022/11/15 05:39:46;;;;;;;19.58;14.88;;;12.50;94.20;;;;;;5022810;28;20050;-71
2022/11/15 05:42:13;;;;;;;35.35;24.05;;;12.50;93.30;;;;;;5028011;28;20076;-72
2022/11/15 05:44:44;;;;;;;35.95;22.42;;;12.50;93.90;;;;;;5024595;28;20037;-72
2022/11/15 05:47:13;;;;;;;26.13;17.90;;;12.50;94.20;;;;;;5023246;28;20037;-72
2022/11/15 05:49:41;;;;;;;28.80;17.65;;;12.50;93.90;;;;;;5021612;28;20025;-73
2022/11/15 05:52:11;;;;;;;27.98;20.00;;;12.60;93.70;;;;;;5017796;28;20030;-71
2022/11/15 05:54:37;;;;;;;27.35;19.05;;;12.60;94.30;;;;;;5018496;28;20029;-72
2022/11/15 05:57:04;;;;;;;29.75;20.10;;;12.60;94.00;;;;;;5028697;28;20076;-72
2022/11/15 05:59:31;;;;;;;26.45;17.05;;;12.60;94.10;;;;;;5012819;28;20073;-72
2022/11/15 06:01:59;;;;;;;30.95;19.67;;;12.60;93.90;;;;;;5018650;28;20033;-72
2022/11/15 06:04:24;;;;;;;35.80;23.55;;;12.60;92.70;;;;;;5029227;28;20025;-72
2022/11/15 06:06:50;;;;;;;30.45;20.63;;;12.60;93.80;;;;;;5028583;28;20021;-72
2022/11/15 06:09:16;;;;;;;30.50;20.67;;;12.60;93.70;;;;;;5024695;28;20037;-72
2022/11/15 06:11:42;;;;;;;36.83;24.35;;;12.60;93.80;;;;;;5026554;28;20036;-72
2022/11/15 06:14:08;;;;;;;37.20;24.88;;;12.60;93.80;;;;;;5025299;28;20030;-71
2022/11/15 06:16:33;;;;;;;29.35;20.15;;;12.60;94.60;;;;;;5020461;28;20025;-73
2022/11/15 06:18:59;;;;;;;18.73;11.75;;;12.60;94.30;;;;;;5019389;28;20076;-74
2022/11/15 06:21:27;;;;;;;29.30;20.17;;;12.70;93.80;;;;;;5021291;28;20040;-71
2022/11/15 06:23:53;;;;;;;27.85;18.95;;;12.70;93.60;;;;;;5026278;28;20253;-72
2022/11/15 06:26:19;;;;;;;18.65;12.98;;;12.70;92.80;;;;;;5023852;28;20040;-72
2022/11/15 06:28:44;;;;;;;24.35;15.65;;;12.70;92.70;;;;;;5028981;28;20038;-72
2022/11/15 06:31:11;;;;;;;19.25;13.20;;;12.70;93.20;;;;;;5022128;28;20037;-72
2022/11/15 06:33:38;;;;;;;27.83;16.67;;;12.70;93.40;;;;;;5017536;28;20431;-73
2022/11/15 06:36:09;;;;;;;32.40;23.70;;;12.70;93.40;;;;;;5025901;28;20021;-72
2022/11/15 06:38:35;;;;;;;34.30;21.10;;;12.70;94.10;;;;;;5028358;28;20027;-73
2022/11/15 06:41:04;;;;;;;25.45;17.33;;;12.70;93.50;;;;;;5016119;28;20037;-72
2022/11/15 06:43:29;;;;;;;32.30;20.48;;;12.70;93.80;;;;;;5028095;28;20033;-72
2022/11/15 06:45:55;;;;;;;30.95;18.70;;;12.70;93.90;;;;;;5022033;28;20014;-72
2022/11/15 06:48:20;;;;;;;32.22;19.77;;;12.80;93.90;;;;;;5025681;28;20100;-73
2022/11/15 06:50:57;;;;;;;25.50;15.98;;;12.80;94.20;;;;;;5011837;28;20774;-72
2022/11/15 06:53:23;;;;;;;20.17;12.25;;;12.90;94.10;;;;;;5017967;28;20112;-72
2022/11/15 06:55:51;;;;;;;26.10;12.32;;;12.90;94.00;;;;;;5012289;28;20112;-71
2022/11/15 06:58:18;;;;;;;19.15;9.25;;;13.10;94.50;;;;;;5019402;28;20025;-72
2022/11/15 07:00:45;;;;;;;14.70;9.02;;;13.40;94.50;;;;;;5007219;28;20480;-73
2022/11/15 07:03:11;;;;;;;16.75;9.65;;;13.60;94.10;;;;;;5028373;28;20021;-73
2022/11/15 07:05:36;;;;;;;17.52;10.60;;;13.90;93.70;;;;;;5028271;28;20025;-72
2022/11/15 07:08:03;;;;;;;20.50;11.65;;;14.10;93.30;;;;;;5021121;28;20038;-73
2022/11/15 07:10:29;;;;;;;20.25;10.85;;;14.30;92.90;;;;;;5023617;28;20045;-73
2022/11/15 07:12:55;;;;;;;15.52;10.23;;;14.40;92.50;;;;;;5019015;28;20061;-72
2022/11/15 07:15:24;;;;;;;17.83;10.75;;;14.60;92.30;;;;;;5025695;28;20041;-72
2022/11/15 07:17:51;;;;;;;16.48;10.63;;;14.70;92.00;;;;;;5016297;28;20034;-73
2022/11/15 07:20:18;;;;;;;14.43;10.27;;;14.80;91.80;;;;;;5015223;28;20399;-72
2022/11/15 07:22:47;;;;;;;17.42;9.77;;;14.80;91.40;;;;;;5018705;28;20021;-74
2022/11/15 07:25:13;;;;;;;12.95;9.10;;;14.90;91.20;;;;;;5016045;28;20053;-72
2022/11/15 07:27:38;;;;;;;11.63;8.63;;;14.80;90.90;;;;;;5020010;28;20018;-71
2022/11/15 07:30:05;;;;;;;13.57;9.10;;;14.80;90.90;;;;;;5015106;28;20032;-72
2022/11/15 07:32:31;;;;;;;12.20;9.52;;;14.80;90.90;;;;;;5018398;28;20028;-72
2022/11/15 07:34:56;;;;;;;13.60;9.38;;;14.80;90.90;;;;;;5018365;28;20022;-72
2022/11/15 07:37:22;;;;;;;14.85;8.95;;;14.70;90.90;;;;;;5020365;28;20562;-72
2022/11/15 07:39:47;;;;;;;12.50;8.57;;;14.60;91.00;;;;;;5017130;28;20014;-72
2022/11/15 07:44:58;;;;;;;12.80;8.32;;;14.40;91.20;;;;;;5017587;28;20037;-71
2022/11/15 07:47:24;;;;;;;11.10;7.88;;;14.40;91.40;;;;;;5013433;28;20103;-73
2022/11/15 07:49:51;;;;;;;11.43;8.27;;;14.50;91.10;;;;;;5015184;28;20475;-71
2022/11/15 07:52:17;;;;;;;13.80;8.32;;;14.50;91.00;;;;;;5015306;28;20025;-72
2022/11/15 07:54:43;;;;;;;10.93;7.90;;;14.50;91.00;;;;;;5020624;28;20088;-72
2022/11/15 07:57:09;;;;;;;14.30;8.75;;;14.60;91.00;;;;;;5019287;28;20045;-73
2022/11/15 07:59:35;;;;;;;14.48;8.32;;;14.70;90.80;;;;;;5018674;28;20036;-72
2022/11/15 08:02:01;;;;;;;11.77;8.13;;;14.70;90.60;;;;;;5015367;28;20054;-72
2022/11/15 08:04:28;;;;;;;13.35;7.78;;;14.80;90.60;;;;;;5022082;28;20678;-73
2022/11/15 08:06:53;;;;;;;12.00;7.28;;;14.80;90.50;;;;;;5020661;28;20029;-72
2022/11/15 08:09:19;;;;;;;14.07;7.57;;;14.90;90.20;;;;;;5025230;28;20040;-75
2022/11/15 08:11:45;;;;;;;11.98;7.40;;;14.90;90.10;;;;;;5016530;28;20033;-73
2022/11/15 08:14:11;;;;;;;14.77;8.23;;;15.00;90.10;;;;;;5018092;28;20025;-72
2022/11/15 08:16:36;;;;;;;14.05;9.38;;;14.90;90.10;;;;;;5015453;28;20146;-71
2022/11/15 08:19:02;;;;;;;13.35;8.00;;;14.90;90.10;;;;;;5018064;28;20053;-73
2022/11/15 08:21:28;;;;;;;13.88;7.60;;;15.00;90.10;;;;;;5018219;28;20045;-72
2022/11/15 08:23:54;;;;;;;13.27;6.70;;;15.00;89.90;;;;;;5017993;28;20131;-72
2022/11/15 08:26:19;;;;;;;8.93;6.28;;;15.10;89.80;;;;;;5018009;28;20030;-73
2022/11/15 08:28:45;;;;;;;14.65;7.47;;;15.10;89.50;;;;;;5019911;28;20040;-74
2022/11/15 08:31:17;;;;;;;10.95;7.38;;;15.20;89.30;;;;;;5024396;28;20617;-72
2022/11/15 08:33:44;;;;;;;10.90;6.53;;;15.20;89.00;;;;;;5019986;28;20145;-73
2022/11/15 08:36:16;;;;;;;8.90;6.25;;;15.20;89.00;;;;;;5019179;28;20037;-73
2022/11/15 08:38:42;;;;;;;10.80;6.88;;;15.20;89.00;;;;;;5019292;28;20026;-71
2022/11/15 08:41:13;;;;;;;11.20;7.80;;;15.30;89.00;;;;;;5026106;28;20025;-72
2022/11/15 08:43:39;;;;;;;11.30;7.57;;;15.30;89.00;;;;;;5018518;28;20034;-74
2022/11/15 08:46:04;;;;;;;10.77;6.80;;;15.50;89.10;;;;;;5023762;28;20517;-72
2022/11/15 08:48:31;;;;;;;10.77;6.22;;;15.60;88.80;;;;;;5022121;28;20023;-73
2022/11/15 08:51:00;;;;;;;10.93;6.80;;;15.60;88.20;;;;;;5021561;28;20084;-72
2022/11/15 08:53:25;;;;;;;9.80;6.15;;;15.70;87.70;;;;;;5017953;28;20505;-72
2022/11/15 08:55:51;;;;;;;10.57;7.30;;;15.60;87.40;;;;;;5021163;28;20034;-73
2022/11/15 08:58:18;;;;;;;12.32;7.10;;;15.60;86.80;;;;;;5021764;28;20487;-73
2022/11/15 09:00:44;;;;;;;9.75;6.78;;;15.50;87.20;;;;;;5024048;28;20426;-72
2022/11/15 09:03:09;;;;;;;9.45;6.32;;;15.40;87.30;;;;;;5022260;28;20028;-74
2022/11/15 09:05:38;;;;;;;9.75;6.40;;;15.40;87.70;;;;;;5019797;28;20445;-73
2022/11/15 09:08:04;;;;;;;9.10;6.15;;;15.40;87.90;;;;;;5016752;28;20040;-73
2022/11/15 09:10:30;;;;;;;10.43;5.88;;;15.40;86.70;;;;;;5017350;28;20026;-71
2022/11/15 09:12:59;;;;;;;10.07;6.53;;;15.40;86.60;;;;;;5026568;28;20029;-73
2022/11/15 09:15:24;;;;;;;10.20;6.05;;;15.30;86.80;;;;;;5023295;28;20080;-72
2022/11/15 09:17:50;;;;;;;10.70;6.10;;;15.30;86.80;;;;;;5023049;28;20056;-72
2022/11/15 09:20:16;;;;;;;7.53;4.75;;;15.20;86.20;;;;;;5025274;28;20049;-74
2022/11/15 09:22:42;;;;;;;10.10;5.78;;;15.10;85.80;;;;;;5022817;28;20590;-72
2022/11/15 09:25:08;;;;;;;9.18;5.13;;;15.00;84.80;;;;;;5020466;28;20050;-73
2022/11/15 09:27:34;;;;;;;6.97;4.55;;;14.80;85.20;;;;;;5023435;28;20718;-73
2022/11/15 09:30:00;;;;;;;8.82;5.10;;;14.70;85.00;;;;;;5018946;28;20032;-72
2022/11/15 09:32:31;;;;;;;7.38;4.70;;;14.70;84.90;;;;;;5023078;28;20078;-74
2022/11/15 09:34:57;;;;;;;9.90;4.13;;;14.70;84.60;;;;;;5016799;28;20079;-72
2022/11/15 09:37:23;;;;;;;8.13;4.95;;;14.70;84.30;;;;;;5024710;28;20025;-74
2022/11/15 09:39:48;;;;;;;7.45;5.47;;;14.70;84.80;;;;;;5019452;28;20065;-72
2022/11/15 09:42:51;;;;;;;7.85;5.10;;;14.60;85.30;;;;;;5025881;28;20018;-72
2022/11/15 09:45:31;;;;;;;8.10;4.32;;;14.60;85.90;;;;;;5028112;28;20021;-73
2022/11/15 09:48:06;;;;;;;;;;;14.60;85.40;;;;;;5015533;28;20046;-72
2022/11/15 09:50:39;;;;;;;8.45;4.45;;;14.70;85.50;;;;;;5023870;28;19926;-72
2022/11/15 09:53:08;;;;;;;6.13;3.72;;;14.90;84.70;;;;;;5028061;28;20025;-75
2022/11/15 09:55:50;;;;;;;7.15;3.97;;;15.00;84.20;;;;;;5034497;28;20477;-75
2022/11/15 09:58:26;;;;;;;7.45;3.60;;;15.10;83.70;;;;;;5020798;28;20018;-72
2022/11/15 10:00:53;;;;;;;8.57;3.97;;;15.10;83.70;;;;;;5022927;28;20092;-73
2022/11/15 10:03:34;;;;;;;6.18;3.85;;;15.10;82.80;;;;;;5018815;28;20026;-74
2022/11/15 10:06:03;;;;;;;6.75;3.85;;;15.20;82.50;;;;;;5019193;28;20480;-74
2022/11/15 10:08:44;;;;;;;6.35;3.92;;;15.10;82.30;;;;;;5022793;28;20033;-74
2022/11/15 10:11:11;;;;;;;6.63;3.55;;;15.00;83.00;;;;;;5011092;28;20034;-73
2022/11/15 10:13:42;;;;;;;8.05;4.05;;;15.00;82.50;;;;;;5018351;28;20033;-73
2022/11/15 10:16:30;;;;;;;7.75;4.10;;;14.90;82.90;;;;;;5015499;28;20029;-73
2022/11/15 10:19:15;;;;;;;6.45;3.42;;;14.80;83.70;;;;;;5024747;28;20038;-74
2022/11/15 10:21:54;;;;;;;6.88;3.75;;;14.70;83.50;;;;;;5015450;28;20030;-74
2022/11/15 10:24:27;;;;;;;5.85;3.35;;;14.80;82.80;;;;;;5024757;28;20038;-73
2022/11/15 10:26:54;;;;;;;4.75;2.67;;;14.80;82.30;;;;;;5019246;28;20121;-73
2022/11/15 10:29:21;;;;;;;4.80;2.63;;;14.80;81.70;;;;;;5028503;28;20120;-74
2022/11/15 10:31:46;;;;;;;5.63;3.17;;;14.70;81.60;;;;;;5027131;28;20021;-74
2022/11/15 10:34:21;;;;;;;6.03;3.50;;;14.60;82.10;;;;;;5019071;28;20091;-73
2022/11/15 10:36:47;;;;;;;6.57;3.03;;;14.50;82.00;;;;;;5022222;28;20057;-73
2022/11/15 10:39:13;;;;;;;5.03;2.53;;;14.40;82.50;;;;;;5024843;28;20476;-74
2022/11/15 10:41:41;;;;;;;4.90;2.58;;;14.40;82.20;;;;;;5019726;28;20488;-72
2022/11/15 10:44:16;;;;;;;4.18;2.30;;;14.40;82.90;;;;;;5015327;28;20032;-74
2022/11/15 10:46:43;;;;;;;4.93;2.40;;;14.40;83.10;;;;;;5021966;28;20029;-73
2022/11/15 10:49:14;;;;;;;6.00;2.40;;;14.50;82.80;;;;;;5021572;28;20096;-74
2022/11/15 10:51:52;;;;;;;3.58;2.05;;;14.80;83.40;;;;;;5028488;28;20040;-73
2022/11/15 10:54:28;;;;;;;3.90;1.88;;;15.10;83.30;;;;;;5019594;28;20476;-72
2022/11/15 10:56:57;;;;;;;4.25;1.95;;;15.50;82.50;;;;;;5029470;28;20048;-74
2022/11/15 10:59:33;;;;;;;4.82;1.80;;;15.80;79.00;;;;;;5016564;28;20018;-73
2022/11/15 11:01:59;;;;;;;4.05;1.60;;;15.90;79.00;;;;;;5028806;28;20029;-74
2022/11/15 11:04:25;;;;;;;5.07;1.40;;;16.00;79.20;;;;;;5024747;28;20104;-73
2022/11/15 11:06:59;;;;;;;5.53;1.40;;;16.10;78.90;;;;;;5024830;28;20028;-74
2022/11/15 11:09:32;;;;;;;1.92;1.05;;;16.20;79.00;;;;;;5011652;28;20160;-74
2022/11/15 11:11:58;;;;;;;7.47;2.08;;;16.20;78.00;;;;;;5023290;28;20511;-72
2022/11/15 11:14:35;;;;;;;3.90;1.40;;;16.20;77.80;;;;;;5021968;28;20083;-75
2022/11/15 11:17:31;;;;;;;6.88;1.33;;;16.20;77.70;;;;;;5019264;28;20064;-73
2022/11/15 11:20:38;;;;;;;3.58;1.20;;;16.30;76.60;;;;;;5014341;28;20519;-74
2022/11/15 11:23:21;;;;;;;4.80;1.52;;;16.40;76.30;;;;;;5026733;28;20111;-73
2022/11/15 11:26:01;;;;;;;4.22;1.10;;;16.40;76.80;;;;;;5029017;28;20053;-73
2022/11/15 11:28:30;;;;;;;3.97;1.23;;;16.50;76.00;;;;;;5017501;28;20068;-75
2022/11/15 11:30:58;;;;;;;3.80;1.40;;;16.60;75.60;;;;;;5020312;28;20026;-74
2022/11/15 11:33:50;;;;;;;5.18;1.40;;;16.70;74.80;;;;;;5029770;28;20053;-74
2022/11/15 11:36:26;;;;;;;3.20;1.00;;;16.80;75.50;;;;;;5025158;28;20029;-74
2022/11/15 11:39:17;;;;;;;3.78;1.10;;;16.80;73.30;;;;;;5024206;28;20057;-75
2022/11/15 11:42:04;;;;;;;3.80;1.10;;;16.90;75.80;;;;;;5012848;28;20032;-74
2022/11/15 11:45:01;;;;;;;4.75;1.08;;;17.10;74.40;;;;;;5008389;28;20026;-73
2022/11/15 11:47:35;;;;;;;3.95;0.95;;;17.40;74.20;;;;;;5025200;28;20097;-74
2022/11/15 11:50:13;;;;;;;3.20;1.05;;;17.60;74.20;;;;;;5020812;28;20091;-74
2022/11/15 11:53:00;;;;;;;2.22;0.70;;;17.60;73.80;;;;;;5022832;28;20033;-74
2022/11/15 11:55:46;;;;;;;3.47;1.10;;;17.60;75.70;;;;;;5013201;28;20526;-73
2022/11/15 11:58:34;;;;;;;2.33;0.88;;;17.90;72.80;;;;;;5024770;28;20443;-74
2022/11/15 12:01:27;;;;;;;2.47;0.82;;;18.00;74.50;;;;;;5025717;28;20536;-73
2022/11/15 12:03:59;;;;;;;4.13;0.85;;;18.10;76.20;;;;;;5022551;28;20025;-73
2022/11/15 12:06:37;;;;;;;3.38;0.90;;;18.20;76.40;;;;;;5012063;28;20037;-74
2022/11/15 12:09:29;;;;;;;2.72;1.05;;;18.30;75.70;;;;;;5010618;28;20096;-73
2022/11/15 12:12:18;;;;;;;3.25;1.17;;;18.40;75.60;;;;;;5018768;28;20032;-75
2022/11/15 12:14:53;;;;;;;3.28;1.02;;;18.40;68.60;;;;;;5015843;28;20129;-73
2022/11/15 12:17:24;;;;;;;3.88;1.42;;;18.20;72.20;;;;;;5015853;28;20036;-76
2022/11/15 12:19:51;;;;;;;4.82;1.40;;;17.90;70.50;;;;;;5015156;28;20033;-74
2022/11/15 12:22:40;;;;;;;5.75;1.10;;;17.60;74.80;;;;;;5025008;28;20490;-74
2022/11/15 12:25:20;;;;;;;4.78;1.17;;;17.40;69.10;;;;;;5026894;28;20100;-75
2022/11/15 12:27:55;;;;;;;4.47;1.37;;;17.40;73.70;;;;;;5021405;28;20033;-74
2022/11/15 12:30:22;;;;;;;3.63;1.27;;;17.40;73.60;;;;;;5025189;28;20260;-74
2022/11/15 12:32:56;;;;;;;4.22;1.30;;;17.40;74.90;;;;;;5014928;28;20080;-74
2022/11/15 12:35:41;;;;;;;4.40;1.75;;;17.30;76.60;;;;;;5023198;28;20084;-74
2022/11/15 12:38:12;;;;;;;17.10;2.45;;;17.30;75.80;;;;;;5027093;28;20104;-74
2022/11/15 12:40:59;;;;;;;9.00;1.98;;;17.40;80.30;;;;;;5025460;28;20021;-76
2022/11/15 12:43:42;;;;;;;6.07;1.90;;;17.50;75.50;;;;;;5023156;28;20399;-73
2022/11/15 12:46:29;;;;;;;5.35;1.88;;;17.40;73.70;;;;;;5017111;28;20377;-74
2022/11/15 12:49:23;;;;;;;5.60;1.27;;;17.20;73.60;;;;;;5021794;28;20037;-73
2022/11/15 12:51:48;;;;;;;5.40;1.63;;;17.00;67.60;;;;;;4996925;28;20068;-75
2022/11/15 12:54:23;;;;;;;5.00;1.25;;;16.90;68.30;;;;;;5027248;28;20033;-75
2022/11/15 12:57:07;;;;;;;9.43;2.10;;;17.00;72.10;;;;;;5017892;28;20759;-74
2022/11/15 12:59:54;;;;;;;4.25;1.13;;;17.10;72.10;;;;;;5020102;28;20038;-74
2022/11/15 13:02:30;;;;;;;2.60;1.25;;;17.10;73.70;;;;;;5023738;28;21221;-74
2022/11/15 13:05:19;;;;;;;4.45;1.15;;;17.00;73.10;;;;;;5019604;28;20084;-73
2022/11/15 13:07:45;;;;;;;3.88;0.90;;;17.00;74.50;;;;;;5021361;28;20041;-73
2022/11/15 13:10:13;;;;;;;5.35;1.10;;;16.90;69.50;;;;;;5022823;28;21565;-74